Terminal Aerodrome Forecast
Issued by NWS

Current Version | Previous Version | Text Only | Print | Product List | Glossary On
Versions: 1 2 3 4 5 6 7 8 9 10 11 12 13 14
071
FTUS44 KSJT 181125
TAFBBD
TAF
KBBD 181125Z 1812/1912 VRB04KT P6SM BKN250
     FM181600 17008KT P6SM SCT060
      AMD NOT SKED=

USA.gov is the U.S. government's official web portal to all federal, state and local government web resources and services.